createdAt,value
2018-03-11T05:53:03.225Z,16.1
2018-03-11T05:53:53.157Z,15.8
2018-03-11T05:54:42.196Z,15.6
2018-03-11T05:55:32.507Z,15.4
2018-03-11T05:56:22.144Z,15.4
2018-03-11T05:57:11.075Z,15.4
2018-03-11T05:58:02.319Z,15.3
2018-03-11T05:58:52.562Z,15.3
2018-03-11T05:59:42.153Z,15.3
2018-03-11T06:00:32.902Z,15.2
2018-03-11T06:01:22.949Z,15.3
2018-03-11T06:02:13.114Z,15.2
2018-03-11T06:03:02.330Z,15.2
2018-03-11T06:03:52.608Z,15.2
2018-03-11T06:04:42.688Z,15.2
2018-03-11T06:05:33.315Z,15.3
2018-03-11T06:06:23.298Z,15.3
2018-03-11T06:07:13.736Z,15.3
2018-03-11T06:08:03.833Z,15.3
2018-03-11T06:08:53.121Z,15.3
2018-03-11T06:09:43.217Z,15.3
2018-03-11T06:10:34.231Z,15.3
2018-03-11T06:11:23.304Z,15.3
2018-03-11T06:12:13.654Z,15.3
2018-03-11T06:13:03.707Z,15.4
2018-03-11T06:13:53.469Z,15.4
2018-03-11T06:14:44.506Z,15.3
2018-03-11T06:15:33.366Z,15.3
2018-03-11T06:16:23.996Z,15.4
2018-03-11T06:17:14.068Z,15.4
2018-03-11T06:18:04.339Z,15.4
2018-03-11T06:18:54.386Z,15.5
2018-03-11T06:19:43.448Z,15.5
2018-03-11T06:20:33.156Z,15.6
2018-03-11T06:21:23.520Z,15.6
2018-03-11T06:22:13.093Z,15.6
2018-03-11T06:23:03.802Z,15.6
2018-03-11T06:23:53.578Z,15.6
2018-03-11T06:24:42.465Z,15.6
2018-03-11T06:25:33.900Z,15.6
2018-03-11T06:26:23.790Z,15.6
2018-03-11T06:27:14.383Z,15.6
2018-03-11T06:28:03.455Z,15.6
2018-03-11T06:28:54.049Z,15.6
2018-03-11T06:29:44.941Z,15.6
2018-03-11T06:30:36.020Z,15.6
2018-03-11T06:31:25.034Z,15.6
2018-03-11T06:32:13.869Z,15.6
2018-03-11T06:33:04.125Z,15.6
2018-03-11T06:33:56.727Z,15.6
2018-03-11T06:34:46.829Z,15.7
2018-03-11T06:35:35.160Z,15.7
2018-03-11T06:36:26.658Z,15.7
2018-03-11T06:37:16.720Z,15.7
2018-03-11T06:38:06.829Z,15.6
2018-03-11T06:38:55.034Z,15.7
2018-03-11T06:39:46.477Z,15.7
2018-03-11T06:40:36.421Z,15.7
2018-03-11T06:41:25.449Z,15.7
2018-03-11T06:42:15.565Z,15.7
2018-03-11T06:43:06.943Z,15.8
2018-03-11T06:43:56.358Z,15.8
2018-03-11T06:44:47.236Z,15.8
2018-03-11T06:45:37.027Z,15.8
2018-03-11T06:46:27.336Z,15.8
2018-03-11T06:47:17.151Z,15.8
2018-03-11T06:48:07.501Z,15.8
2018-03-11T06:48:57.287Z,15.8
2018-03-11T06:49:47.613Z,15.8
2018-03-11T06:50:36.868Z,15.8
2018-03-11T06:51:26.436Z,15.8
2018-03-11T06:52:16.586Z,15.8
2018-03-11T06:53:06.583Z,15.8
2018-03-11T06:53:55.541Z,15.8
2018-03-11T06:54:46.892Z,15.8
2018-03-11T06:55:37.546Z,15.8
2018-03-11T06:56:27.384Z,15.8
2018-03-11T06:57:16.856Z,15.8
2018-03-11T06:58:06.230Z,15.8
2018-03-11T06:58:58.063Z,15.8
2018-03-11T06:59:47.303Z,15.8
2018-03-11T07:00:37.050Z,15.8
2018-03-11T07:01:27.641Z,15.8
2018-03-11T07:02:17.008Z,15.8
2018-03-11T07:03:07.541Z,15.8
2018-03-11T07:03:57.240Z,15.8
2018-03-11T07:04:47.110Z,15.8
2018-03-11T07:05:36.865Z,15.8
2018-03-11T07:06:26.603Z,15.8
2018-03-11T07:07:17.586Z,15.8
2018-03-11T07:08:07.448Z,15.8
2018-03-11T07:08:58.418Z,15.8
2018-03-11T07:09:49.089Z,15.8
2018-03-11T07:10:38.547Z,15.9
2018-03-11T07:11:28.961Z,15.9
2018-03-11T07:12:19.200Z,15.9
2018-03-11T07:13:09.576Z,15.9
2018-03-11T07:13:58.782Z,15.9
2018-03-11T07:14:47.795Z,15.9
2018-03-11T07:15:38.057Z,15.9
2018-03-11T07:16:27.717Z,15.9
2018-03-11T07:17:17.383Z,15.9
2018-03-11T07:18:07.651Z,15.9
2018-03-11T07:18:57.781Z,15.9
2018-03-11T07:19:48.169Z,15.9
2018-03-11T07:20:37.069Z,15.9
2018-03-11T07:21:28.291Z,15.9
2018-03-11T07:22:17.704Z,16
2018-03-11T07:23:08.051Z,16
2018-03-11T07:23:58.137Z,16
2018-03-11T07:24:47.562Z,16.1
2018-03-11T07:25:39.451Z,16.1
2018-03-11T07:26:29.189Z,16.1
2018-03-11T07:27:17.542Z,16.1
2018-03-11T07:28:08.394Z,16.1
2018-03-11T07:28:59.213Z,16.2
2018-03-11T07:29:48.219Z,16.2
2018-03-11T07:30:38.813Z,16.2
2018-03-11T07:31:28.508Z,16.2
2018-03-11T07:32:17.931Z,16.2
2018-03-11T07:33:08.734Z,16.2
2018-03-11T07:33:59.776Z,16.3
2018-03-11T07:34:49.309Z,16.3
2018-03-11T07:35:39.625Z,16.3
2018-03-11T07:36:29.389Z,16.3
2018-03-11T07:37:18.759Z,16.3
2018-03-11T07:38:08.821Z,16.3
2018-03-11T07:38:58.775Z,16.3
2018-03-11T07:39:49.588Z,16.3
2018-03-11T07:40:39.477Z,16.3
2018-03-11T07:41:30.603Z,16.3
2018-03-11T07:42:19.980Z,16.3
2018-03-11T07:43:09.060Z,16.4
2018-03-11T07:43:59.313Z,16.4
2018-03-11T07:44:50.569Z,16.4
2018-03-11T07:45:39.037Z,16.4
2018-03-11T07:46:29.689Z,16.4
2018-03-11T07:47:19.598Z,16.4
2018-03-11T07:48:09.458Z,16.4
2018-03-11T07:48:59.822Z,16.4
2018-03-11T07:49:49.147Z,16.5
2018-03-11T07:50:39.533Z,16.5
2018-03-11T07:51:29.745Z,16.5
2018-03-11T07:52:19.948Z,16.5
2018-03-11T07:53:09.693Z,16.6
2018-03-11T07:54:00.500Z,16.6
2018-03-11T07:54:50.305Z,16.6
2018-03-11T07:55:40.272Z,16.6
2018-03-11T07:56:29.634Z,16.6
2018-03-11T07:57:20.769Z,16.7
2018-03-11T07:58:10.880Z,16.7
2018-03-11T07:58:59.045Z,16.7
2018-03-11T07:59:51.195Z,16.7
2018-03-11T08:00:40.627Z,16.8
2018-03-11T08:01:30.742Z,16.8
2018-03-11T08:02:19.957Z,16.7
2018-03-11T08:03:11.710Z,16.8
2018-03-11T08:04:01.456Z,16.8
2018-03-11T08:04:51.405Z,16.8
2018-03-11T08:05:41.720Z,16.8
2018-03-11T08:06:30.167Z,16.8
2018-03-11T08:07:21.722Z,16.8
2018-03-11T08:08:11.500Z,16.9
2018-03-11T08:09:00.814Z,16.8
2018-03-11T08:09:51.377Z,16.9
2018-03-11T08:10:40.762Z,16.9
2018-03-11T08:11:31.691Z,16.9
2018-03-11T08:12:21.776Z,16.9
2018-03-11T08:13:11.516Z,16.9
2018-03-11T08:14:01.678Z,16.9
2018-03-11T08:14:52.072Z,16.9
2018-03-11T08:15:41.454Z,16.9
2018-03-11T08:16:32.128Z,16.9
2018-03-11T08:17:22.631Z,16.8
2018-03-11T08:18:12.681Z,16.9
2018-03-11T08:19:02.541Z,16.9
2018-03-11T08:19:51.618Z,16.9
2018-03-11T08:21:32.330Z,16.9
2018-03-11T08:22:23.000Z,16.9
2018-03-11T08:26:32.201Z,17.1
2018-03-11T08:27:23.260Z,17.1
2018-03-11T08:28:12.724Z,17.1
2018-03-11T08:29:02.850Z,17.1
2018-03-11T08:29:53.060Z,17.1
2018-03-11T08:30:43.179Z,17.1
2018-03-11T08:31:32.691Z,17.1
2018-03-11T08:32:24.465Z,17.1
2018-03-11T08:33:13.548Z,17.1
2018-03-11T08:34:03.384Z,17.1
2018-03-11T08:34:53.960Z,17.1
2018-03-11T08:35:43.367Z,17.1
2018-03-11T08:36:32.919Z,17.1
2018-03-11T08:37:23.768Z,17.1
2018-03-11T08:38:13.247Z,17.1
2018-03-11T08:39:04.305Z,17.1
2018-03-11T08:39:53.480Z,17.2
2018-03-11T08:40:42.472Z,17.2
2018-03-11T08:41:32.494Z,17.2
2018-03-11T08:42:23.487Z,17.2
2018-03-11T08:43:13.897Z,17.3
2018-03-11T08:44:04.084Z,17.3
2018-03-11T08:44:55.155Z,17.3
2018-03-11T08:45:45.201Z,17.3
2018-03-11T08:46:35.267Z,17.3
2018-03-11T08:47:25.343Z,17.3
2018-03-11T08:48:15.174Z,17.3
2018-03-11T08:49:03.889Z,17.3
2018-03-11T08:49:54.959Z,17.3
2018-03-11T08:50:45.144Z,17.3
2018-03-11T08:51:35.413Z,17.3
2018-03-11T08:52:25.698Z,17.3
2018-03-11T08:53:16.015Z,17.3
2018-03-11T08:54:06.163Z,17.3
2018-03-11T08:54:55.561Z,17.3
2018-03-11T08:55:46.170Z,17.3
2018-03-11T08:56:34.743Z,17.4
2018-03-11T08:57:25.859Z,17.4
2018-03-11T08:58:15.588Z,17.4
2018-03-11T08:59:05.822Z,17.4
2018-03-11T08:59:55.764Z,17.4
2018-03-11T09:00:46.613Z,17.4
2018-03-11T09:01:34.520Z,17.4
2018-03-11T09:02:25.875Z,17.4
2018-03-11T09:03:16.808Z,17.4
2018-03-11T09:04:06.546Z,17.4
2018-03-11T09:04:56.908Z,17.4
2018-03-11T09:05:46.898Z,17.4
2018-03-11T09:06:37.220Z,17.5
2018-03-11T09:07:26.780Z,17.4
2018-03-11T09:08:17.102Z,17.5
2018-03-11T09:09:07.170Z,17.5
2018-03-11T09:09:57.022Z,17.5
2018-03-11T09:10:47.570Z,17.6
2018-03-11T09:11:37.308Z,17.6
2018-03-11T09:12:27.114Z,17.6
2018-03-11T09:13:17.442Z,17.6
2018-03-11T09:14:07.571Z,17.6
2018-03-11T09:14:57.254Z,17.6
2018-03-11T09:15:47.868Z,17.6
2018-03-11T09:16:37.969Z,17.6
2018-03-11T09:17:26.260Z,17.6
2018-03-11T09:18:15.972Z,17.6
2018-03-11T09:19:06.577Z,17.6
2018-03-11T09:19:56.076Z,17.6
2018-03-11T09:20:47.305Z,17.6
2018-03-11T09:21:37.106Z,17.6
2018-03-11T09:22:26.924Z,17.6
2018-03-11T09:23:16.877Z,17.6
2018-03-11T09:24:06.054Z,17.6
2018-03-11T09:24:56.612Z,17.6
2018-03-11T09:25:47.400Z,17.6
2018-03-11T09:26:36.524Z,17.7
2018-03-11T09:27:27.602Z,17.6
2018-03-11T09:28:16.689Z,17.6
2018-03-11T09:29:07.497Z,17.6
2018-03-11T09:29:56.989Z,17.7
2018-03-11T09:30:47.545Z,17.6
2018-03-11T09:31:37.879Z,17.7
2018-03-11T09:32:26.896Z,17.7
2018-03-11T09:33:17.847Z,17.7
2018-03-11T09:34:07.387Z,17.7
2018-03-11T09:34:57.779Z,17.7
2018-03-11T09:35:48.001Z,17.7
2018-03-11T09:36:37.609Z,17.7
2018-03-11T09:37:27.525Z,17.7
2018-03-11T09:38:16.397Z,17.7
2018-03-11T09:39:08.196Z,17.7
2018-03-11T09:39:58.281Z,17.7
2018-03-11T09:40:49.033Z,17.8
2018-03-11T09:41:39.866Z,17.7
2018-03-11T09:42:27.983Z,17.7
2018-03-11T09:43:19.411Z,17.7
2018-03-11T09:44:10.083Z,17.7
2018-03-11T09:44:59.745Z,17.7
2018-03-11T09:45:49.451Z,17.7
2018-03-11T09:46:39.904Z,17.7
2018-03-11T09:47:29.416Z,17.8
2018-03-11T09:48:19.992Z,17.7
2018-03-11T09:49:08.485Z,17.8
2018-03-11T09:49:58.216Z,17.8
2018-03-11T09:50:49.429Z,17.8
2018-03-11T09:51:38.376Z,17.8
2018-03-11T09:52:28.716Z,17.8
2018-03-11T09:53:19.167Z,17.8
2018-03-11T09:54:09.307Z,17.8
2018-03-11T09:54:59.962Z,17.8
2018-03-11T09:55:50.102Z,17.8
2018-03-11T09:56:39.790Z,17.8
2018-03-11T09:57:29.010Z,17.8
2018-03-11T09:58:19.126Z,17.8
2018-03-11T09:59:09.397Z,17.7
2018-03-11T10:00:00.008Z,17.7
2018-03-11T10:00:49.607Z,17.6
2018-03-11T10:01:39.975Z,17.6
2018-03-11T10:02:29.131Z,17.6
2018-03-11T10:03:20.318Z,17.6
2018-03-11T10:04:10.655Z,17.6
2018-03-11T10:05:00.960Z,17.6
2018-03-11T10:05:49.010Z,17.6
2018-03-11T10:06:40.350Z,17.6
2018-03-11T10:07:30.623Z,17.6
2018-03-11T10:08:20.172Z,17.6
2018-03-11T10:09:09.897Z,17.7
2018-03-11T10:09:59.495Z,17.6
2018-03-11T10:10:50.669Z,17.6
2018-03-11T10:11:40.643Z,17.6
2018-03-11T10:12:30.592Z,17.6
2018-03-11T10:13:20.927Z,17.6
2018-03-11T10:14:10.696Z,17.6
2018-03-11T10:15:00.417Z,17.7
2018-03-11T10:15:50.017Z,17.6
2018-03-11T10:16:40.457Z,17.7
2018-03-11T10:17:31.032Z,17.6
2018-03-11T10:18:21.052Z,17.6
2018-03-11T10:19:11.047Z,17.6
2018-03-11T10:20:01.054Z,17.6
2018-03-11T10:20:50.508Z,17.7
2018-03-11T10:21:40.621Z,17.7
2018-03-11T10:22:30.417Z,17.6
2018-03-11T10:23:20.938Z,17.6
2018-03-11T10:24:11.410Z,17.6
2018-03-11T10:25:02.121Z,17.6
2018-03-11T10:25:52.271Z,17.6
2018-03-11T10:26:41.761Z,17.6
2018-03-11T10:27:32.679Z,17.6
2018-03-11T10:28:20.876Z,17.7
2018-03-11T10:29:11.443Z,17.7
2018-03-11T10:30:01.054Z,17.6
2018-03-11T10:30:51.990Z,17.7
2018-03-11T10:31:42.223Z,17.7
2018-03-11T10:32:32.989Z,17.7
2018-03-11T10:33:22.153Z,17.7
2018-03-11T10:34:12.528Z,17.7
2018-03-11T10:35:01.398Z,17.7
2018-03-11T10:35:51.286Z,17.7
2018-03-11T10:36:42.430Z,17.7
2018-03-11T10:37:31.191Z,17.7
2018-03-11T10:38:21.890Z,17.8
2018-03-11T10:39:11.543Z,17.7
2018-03-11T10:40:01.970Z,17.8
2018-03-11T10:40:52.708Z,17.8
2018-03-11T10:41:42.109Z,17.8
2018-03-11T10:42:32.683Z,17.7
2018-03-11T10:43:23.459Z,17.8
2018-03-11T10:44:12.890Z,17.7
2018-03-11T10:45:03.335Z,17.7
2018-03-11T10:45:53.317Z,17.8
2018-03-11T10:46:43.515Z,17.7
2018-03-11T10:47:32.833Z,17.7
2018-03-11T10:48:22.875Z,17.7
2018-03-11T10:49:13.575Z,17.7
2018-03-11T10:50:03.378Z,17.7
2018-03-11T10:50:53.895Z,17.7
2018-03-11T10:51:44.135Z,17.7
2018-03-11T10:52:33.951Z,17.7
2018-03-11T10:53:22.887Z,17.7
2018-03-11T10:54:13.667Z,17.7
2018-03-11T10:55:02.974Z,17.7
2018-03-11T10:55:53.724Z,17.8
2018-03-11T10:56:44.200Z,17.8
2018-03-11T10:57:33.384Z,17.8
2018-03-11T10:58:23.197Z,17.8
2018-03-11T10:59:13.370Z,17.8
2018-03-11T11:00:03.227Z,17.8
2018-03-11T11:00:54.645Z,17.8
2018-03-11T11:01:43.455Z,17.8
2018-03-11T11:02:34.757Z,17.9
2018-03-11T11:03:24.824Z,17.9
2018-03-11T11:04:14.154Z,17.8
2018-03-11T11:05:03.789Z,17.9
2018-03-11T11:05:54.267Z,17.8
2018-03-11T11:06:44.300Z,17.9
2018-03-11T11:07:35.056Z,17.9
2018-03-11T11:08:24.442Z,17.9
2018-03-11T11:09:14.369Z,17.9
2018-03-11T11:10:03.950Z,17.9
2018-03-11T11:10:53.996Z,17.9
2018-03-11T11:11:44.663Z,17.9
2018-03-11T11:12:35.628Z,17.9
2018-03-11T11:13:25.349Z,17.9
2018-03-11T11:14:14.514Z,17.9
2018-03-11T11:15:04.448Z,17.9
2018-03-11T11:15:54.766Z,18
2018-03-11T11:16:44.923Z,18
2018-03-11T11:17:35.958Z,17.9
2018-03-11T11:18:23.660Z,17.9
2018-03-11T11:19:14.643Z,18
2018-03-11T11:20:05.608Z,18
2018-03-11T11:20:55.508Z,18
2018-03-11T11:21:45.405Z,18
2018-03-11T11:22:35.355Z,18
2018-03-11T11:23:24.815Z,17.9
2018-03-11T11:24:15.281Z,17.9
2018-03-11T11:25:07.319Z,17.9
2018-03-11T11:25:57.072Z,17.9
2018-03-11T11:26:47.235Z,17.9
2018-03-11T11:27:37.224Z,17.9
2018-03-11T11:28:27.537Z,18
2018-03-11T11:29:17.044Z,18
2018-03-11T11:30:07.670Z,18
2018-03-11T11:30:56.963Z,18
2018-03-11T11:31:47.239Z,18
2018-03-11T11:32:37.273Z,18
2018-03-11T11:33:26.253Z,18.1
2018-03-11T11:34:17.430Z,18
2018-03-11T11:35:07.604Z,18
2018-03-11T11:35:58.140Z,18
2018-03-11T11:36:48.152Z,18
2018-03-11T11:37:38.610Z,18
2018-03-11T11:38:27.821Z,18
2018-03-11T11:39:17.222Z,18
2018-03-11T11:40:07.912Z,18
2018-03-11T11:40:57.895Z,18
